createdAt,value
2019-06-15T00:02:47.323Z,0.00
2019-06-15T00:07:47.184Z,0.00
2019-06-15T00:12:49.421Z,0.00
2019-06-15T00:17:47.150Z,0.00
2019-06-15T00:22:46.968Z,0.00
2019-06-15T00:27:46.978Z,0.00
2019-06-15T00:32:47.100Z,0.00
2019-06-15T00:37:54.461Z,0.00
2019-06-15T00:42:46.670Z,0.00
2019-06-15T00:47:46.621Z,0.00
2019-06-15T00:52:46.560Z,0.00
2019-06-15T00:57:46.556Z,0.00
2019-06-15T01:02:46.483Z,0.00
2019-06-15T01:07:46.437Z,0.00
2019-06-15T01:12:46.504Z,0.00
2019-06-15T01:17:46.380Z,0.00
2019-06-15T01:22:46.363Z,0.00
2019-06-15T01:27:46.174Z,0.00
2019-06-15T01:32:46.334Z,0.00
2019-06-15T01:37:46.499Z,0.00
2019-06-15T01:42:46.187Z,0.00
2019-06-15T01:47:46.114Z,0.00
2019-06-15T01:52:46.030Z,0.00
2019-06-15T01:57:46.011Z,0.00
2019-06-15T02:02:45.963Z,0.00
2019-06-15T02:07:46.055Z,0.00
2019-06-15T02:12:45.815Z,0.00
2019-06-15T02:17:45.852Z,0.00
2019-06-15T02:22:45.761Z,0.00
2019-06-15T02:27:45.704Z,0.00
2019-06-15T02:32:45.707Z,0.00
2019-06-15T02:37:45.625Z,0.00
2019-06-15T02:42:45.580Z,0.00
2019-06-15T02:47:45.559Z,0.00
2019-06-15T02:52:45.498Z,0.00
2019-06-15T02:57:45.426Z,0.00
2019-06-15T03:02:45.459Z,0.00
2019-06-15T03:07:45.899Z,0.00
2019-06-15T03:12:45.426Z,0.00
2019-06-15T03:17:45.675Z,0.00
2019-06-15T03:22:45.796Z,0.00
2019-06-15T03:27:45.876Z,0.00
2019-06-15T03:32:46.214Z,0.00
2019-06-15T03:37:46.139Z,0.00
2019-06-15T03:42:46.223Z,0.00
2019-06-15T03:47:46.023Z,0.00
2019-06-15T03:52:46.045Z,0.00
2019-06-15T03:57:46.008Z,5.62
2019-06-15T04:02:46.061Z,5.62
2019-06-15T04:07:46.147Z,5.62
2019-06-15T04:12:46.014Z,11.25
2019-06-15T04:17:46.334Z,11.25
2019-06-15T04:22:46.337Z,11.25
2019-06-15T04:27:46.292Z,16.88
2019-06-15T04:32:46.347Z,16.88
2019-06-15T04:37:46.322Z,28.12
2019-06-15T04:42:46.463Z,45.00
2019-06-15T04:47:46.273Z,78.75
2019-06-15T04:52:46.257Z,129.38
2019-06-15T04:57:46.274Z,225.00
2019-06-15T05:02:46.244Z,275.62
2019-06-15T05:07:46.199Z,208.12
2019-06-15T05:12:46.269Z,213.75
2019-06-15T05:17:46.365Z,230.62
2019-06-15T05:22:45.955Z,247.50
2019-06-15T05:27:46.033Z,258.75
2019-06-15T05:32:46.109Z,253.12
2019-06-15T05:37:45.834Z,292.50
2019-06-15T05:42:45.737Z,360.00
2019-06-15T05:47:45.676Z,405.00
2019-06-15T05:52:45.645Z,286.88
2019-06-15T05:57:45.561Z,258.75
2019-06-15T06:02:45.550Z,348.75
2019-06-15T06:07:45.471Z,309.38
2019-06-15T06:12:45.708Z,438.75
2019-06-15T06:17:45.493Z,585.00
2019-06-15T06:22:45.464Z,635.62
2019-06-15T06:27:45.373Z,607.50
2019-06-15T06:32:45.346Z,787.50
2019-06-15T06:37:45.272Z,1417.50
2019-06-15T06:42:45.233Z,990.00
2019-06-15T06:47:45.250Z,781.88
2019-06-15T06:52:45.389Z,1158.75
2019-06-15T06:57:52.551Z,472.50
2019-06-15T07:02:46.353Z,399.38
2019-06-15T07:07:45.177Z,202.50
2019-06-15T07:12:45.053Z,624.38
2019-06-15T07:17:44.903Z,495.00
2019-06-15T07:22:44.884Z,832.50
2019-06-15T07:27:44.914Z,1445.62
2019-06-15T07:32:44.962Z,1991.25
2019-06-15T07:37:44.864Z,832.50
2019-06-15T07:42:44.755Z,1108.12
2019-06-15T07:47:44.772Z,2356.88
2019-06-15T07:52:45.938Z,2221.88
2019-06-15T07:57:44.753Z,2441.25
2019-06-15T08:02:44.609Z,2351.25
2019-06-15T08:07:44.531Z,2446.88
2019-06-15T08:12:44.522Z,1800.00
2019-06-15T08:17:45.693Z,2716.88
2019-06-15T08:22:44.537Z,1215.00
2019-06-15T08:27:44.635Z,945.00
2019-06-15T08:32:44.432Z,2643.75
2019-06-15T08:37:44.671Z,961.88
2019-06-15T08:42:44.417Z,1012.50
2019-06-15T08:47:44.305Z,905.62
2019-06-15T08:52:44.349Z,2497.50
2019-06-15T08:57:44.379Z,821.25
2019-06-15T09:02:44.430Z,1597.50
2019-06-15T09:07:44.158Z,2390.62
2019-06-15T09:12:44.071Z,3003.75
2019-06-15T09:17:44.223Z,1023.75
2019-06-15T09:22:45.456Z,2891.25
2019-06-15T09:27:43.980Z,1372.50
2019-06-15T09:32:44.571Z,3110.62
2019-06-15T09:37:43.870Z,2846.25
2019-06-15T09:42:44.181Z,3009.38
2019-06-15T09:47:43.811Z,1344.38
2019-06-15T09:52:44.003Z,849.38
2019-06-15T09:57:43.781Z,984.38
2019-06-15T10:02:43.716Z,1091.25
2019-06-15T10:07:43.671Z,894.38
2019-06-15T10:12:44.058Z,1170.00
2019-06-15T10:17:43.638Z,1175.62
2019-06-15T10:22:43.609Z,855.00
2019-06-15T10:27:43.691Z,1175.62
2019-06-15T10:32:43.713Z,1299.38
2019-06-15T10:37:43.394Z,1220.62
2019-06-15T10:42:43.350Z,658.12
2019-06-15T10:47:43.496Z,810.00
2019-06-15T10:52:43.520Z,399.38
2019-06-15T10:57:43.262Z,1063.12
2019-06-15T11:02:43.154Z,815.62
2019-06-15T11:07:43.110Z,315.00
2019-06-15T11:12:46.740Z,900.00
2019-06-15T11:17:43.205Z,1822.50
2019-06-15T11:22:42.936Z,1029.38
2019-06-15T11:27:42.903Z,748.12
2019-06-15T11:32:42.979Z,3465.00
2019-06-15T11:37:42.918Z,3318.75
2019-06-15T11:42:42.908Z,1563.75
2019-06-15T11:47:42.807Z,1136.25
2019-06-15T11:52:42.726Z,3330.00
2019-06-15T11:57:42.677Z,866.25
2019-06-15T12:02:42.897Z,1591.88
2019-06-15T12:07:42.803Z,1130.62
2019-06-15T12:12:42.607Z,2716.88
2019-06-15T12:17:42.508Z,1462.50
2019-06-15T12:22:42.498Z,3138.75
2019-06-15T12:27:42.456Z,2070.00
2019-06-15T12:32:42.402Z,3386.25
2019-06-15T12:37:42.429Z,1991.25
2019-06-15T12:42:42.725Z,3228.75
2019-06-15T12:47:42.696Z,3026.25
2019-06-15T12:52:42.737Z,3009.38
2019-06-15T12:57:42.376Z,945.00
2019-06-15T13:02:42.240Z,2863.12
2019-06-15T13:07:42.361Z,2452.50
2019-06-15T13:12:42.138Z,2868.75
2019-06-15T13:17:42.136Z,2576.25
2019-06-15T13:22:42.157Z,2705.62
2019-06-15T13:27:42.341Z,2025.00
2019-06-15T13:32:42.032Z,2604.38
2019-06-15T13:37:42.543Z,1473.75
2019-06-15T13:42:41.969Z,2491.88
2019-06-15T13:47:41.903Z,2503.12
2019-06-15T13:52:42.906Z,2424.38
2019-06-15T13:57:41.949Z,2463.75
2019-06-15T14:02:41.873Z,2351.25
2019-06-15T14:07:42.020Z,2407.50
2019-06-15T14:12:41.944Z,2373.75
2019-06-15T14:17:41.728Z,2278.12
2019-06-15T14:22:41.696Z,2289.38
2019-06-15T14:27:41.704Z,2131.88
2019-06-15T14:32:41.709Z,2013.75
2019-06-15T14:37:41.688Z,2176.88
2019-06-15T14:42:41.610Z,2008.12
2019-06-15T14:47:41.545Z,2160.00
2019-06-15T14:52:41.653Z,2075.62
2019-06-15T14:57:41.428Z,2070.00
2019-06-15T15:02:41.368Z,1963.12
2019-06-15T15:07:41.360Z,1985.62
2019-06-15T15:12:41.946Z,1901.25
2019-06-15T15:17:41.313Z,1946.25
2019-06-15T15:22:41.257Z,1811.25
2019-06-15T15:27:41.212Z,1760.62
2019-06-15T15:32:41.169Z,1856.25
2019-06-15T15:37:41.115Z,725.62
2019-06-15T15:42:41.075Z,793.12
2019-06-15T15:47:41.055Z,1811.25
2019-06-15T15:52:41.007Z,1783.12
2019-06-15T15:57:40.981Z,855.00
2019-06-15T16:02:52.056Z,1620.00
2019-06-15T16:07:41.900Z,928.12
2019-06-15T16:12:40.838Z,1276.88
